createdAt,value
2022-08-03T00:01:24.781Z,20.64
2022-08-03T00:03:50.934Z,20.52
2022-08-03T00:06:17.074Z,20.48
2022-08-03T00:08:43.217Z,20.49
2022-08-03T00:11:09.367Z,20.39
2022-08-03T00:13:35.498Z,20.33
2022-08-03T00:16:01.922Z,20.40
2022-08-03T00:18:28.057Z,20.39
2022-08-03T00:20:54.246Z,20.36
2022-08-03T00:23:20.424Z,20.30
2022-08-03T00:25:46.599Z,20.31
2022-08-03T00:28:12.738Z,20.35
2022-08-03T00:30:39.602Z,20.28
2022-08-03T00:33:08.373Z,20.36
2022-08-03T00:35:50.471Z,20.20
2022-08-03T00:38:17.246Z,20.19
2022-08-03T00:40:43.391Z,20.15
2022-08-03T00:43:09.531Z,20.08
2022-08-03T00:45:35.664Z,20.02
2022-08-03T00:48:01.795Z,20.02
2022-08-03T00:50:27.943Z,20.09
2022-08-03T00:52:54.095Z,20.17
2022-08-03T00:55:20.317Z,20.14
2022-08-03T00:57:46.454Z,20.09
2022-08-03T01:00:12.611Z,19.98
2022-08-03T01:02:38.737Z,20.02
2022-08-03T01:05:06.233Z,19.96
2022-08-03T01:07:32.390Z,19.95
2022-08-03T01:09:58.528Z,19.92
2022-08-03T01:12:24.663Z,19.76
2022-08-03T01:14:50.809Z,19.78
2022-08-03T01:17:16.957Z,19.68
2022-08-03T01:19:43.109Z,19.68
2022-08-03T01:22:09.928Z,19.70
2022-08-03T01:24:36.114Z,19.65
2022-08-03T01:27:03.242Z,19.67
2022-08-03T01:29:29.919Z,19.70
2022-08-03T01:32:58.463Z,19.68
2022-08-03T01:34:42.160Z,19.39
2022-08-03T01:37:08.297Z,19.40
2022-08-03T01:39:34.447Z,19.47
2022-08-03T01:42:00.593Z,19.35
2022-08-03T01:44:30.798Z,19.26
2022-08-03T01:46:57.189Z,19.29
2022-08-03T01:49:23.385Z,19.47
2022-08-03T01:52:03.042Z,19.44
2022-08-03T01:54:30.836Z,19.45
2022-08-03T01:56:56.965Z,19.40
2022-08-03T01:59:23.094Z,19.44
2022-08-03T02:02:28.277Z,19.41
2022-08-03T02:04:35.358Z,19.30
2022-08-03T02:07:03.313Z,19.34
2022-08-03T02:09:29.700Z,19.44
2022-08-03T02:11:55.829Z,19.39
2022-08-03T02:14:21.968Z,19.32
2022-08-03T02:16:48.097Z,19.33
2022-08-03T02:19:14.229Z,19.36
2022-08-03T02:21:55.676Z,19.47
2022-08-03T02:24:26.490Z,19.41
2022-08-03T02:26:52.649Z,19.36
2022-08-03T02:29:18.790Z,19.32
2022-08-03T02:31:44.970Z,19.22
2022-08-03T02:34:11.597Z,19.23
2022-08-03T02:36:37.741Z,19.18
2022-08-03T02:39:03.884Z,19.27
2022-08-03T02:41:30.029Z,19.27
2022-08-03T02:44:05.504Z,19.16
2022-08-03T02:46:33.422Z,19.15
2022-08-03T02:48:59.584Z,19.16
2022-08-03T02:51:45.678Z,19.11
2022-08-03T02:54:11.802Z,19.19
2022-08-03T02:56:37.917Z,19.27
2022-08-03T02:59:04.067Z,19.37
2022-08-03T03:01:30.281Z,19.47
2022-08-03T03:03:56.477Z,19.40
2022-08-03T03:06:22.633Z,19.37
2022-08-03T03:08:51.004Z,19.34
2022-08-03T03:11:17.150Z,19.36
2022-08-03T03:13:43.308Z,19.36
2022-08-03T03:16:09.451Z,19.34
2022-08-03T03:18:35.588Z,19.34
2022-08-03T03:21:01.748Z,19.28
2022-08-03T03:23:27.878Z,19.27
2022-08-03T03:25:54.026Z,19.27
2022-08-03T03:28:20.182Z,19.23
2022-08-03T03:30:52.753Z,19.20
2022-08-03T03:33:19.386Z,19.15
2022-08-03T03:35:45.539Z,19.16
2022-08-03T03:38:11.689Z,19.16
2022-08-03T03:40:37.825Z,19.24
2022-08-03T03:43:04.014Z,19.19
2022-08-03T03:45:30.151Z,19.11
2022-08-03T03:47:56.277Z,19.09
2022-08-03T03:50:22.441Z,19.01
2022-08-03T03:52:48.583Z,19.04
2022-08-03T03:55:14.716Z,19.04
2022-08-03T03:57:40.859Z,19.04
2022-08-03T04:00:06.995Z,19.05
2022-08-03T04:02:33.125Z,19.12
2022-08-03T04:04:59.277Z,19.11
2022-08-03T04:07:25.410Z,19.21
2022-08-03T04:09:51.545Z,19.14
2022-08-03T04:12:17.871Z,19.14
2022-08-03T04:14:44.045Z,19.03
2022-08-03T04:17:10.177Z,19.00
2022-08-03T04:19:36.331Z,19.05
2022-08-03T04:22:04.005Z,19.14
2022-08-03T04:24:30.142Z,19.16
2022-08-03T04:26:56.273Z,19.16
2022-08-03T04:29:22.401Z,19.15
2022-08-03T04:31:48.541Z,19.14
2022-08-03T04:34:14.689Z,19.20
2022-08-03T04:36:40.837Z,19.27
2022-08-03T04:39:06.957Z,19.37
2022-08-03T04:41:33.606Z,19.42
2022-08-03T04:44:19.724Z,19.55
2022-08-03T04:46:50.438Z,19.67
2022-08-03T04:49:18.928Z,19.77
2022-08-03T04:51:45.116Z,19.81
2022-08-03T04:54:11.265Z,19.81
2022-08-03T04:56:37.392Z,19.70
2022-08-03T04:59:03.527Z,19.46
2022-08-03T05:01:29.744Z,19.24
2022-08-03T05:03:55.910Z,19.25
2022-08-03T05:06:22.043Z,19.26
2022-08-03T05:08:51.357Z,19.30
2022-08-03T05:11:17.495Z,19.35
2022-08-03T05:13:43.615Z,19.42
2022-08-03T05:16:09.784Z,19.43
2022-08-03T05:18:35.963Z,19.50
2022-08-03T05:21:02.150Z,19.50
2022-08-03T05:23:28.339Z,19.49
2022-08-03T05:25:54.543Z,19.53
2022-08-03T05:28:20.682Z,19.63
2022-08-03T05:30:46.845Z,19.67
2022-08-03T05:33:12.982Z,19.73
2022-08-03T05:35:57.475Z,19.76
2022-08-03T05:38:33.156Z,19.80
2022-08-03T05:41:21.375Z,19.82
2022-08-03T05:43:48.024Z,19.92
2022-08-03T05:46:14.191Z,19.96
2022-08-03T05:48:40.352Z,19.95
2022-08-03T05:51:06.578Z,19.99
2022-08-03T05:53:32.712Z,20.05
2022-08-03T05:56:14.610Z,20.07
2022-08-03T05:58:41.771Z,20.03
2022-08-03T06:01:07.996Z,20.03
2022-08-03T06:03:34.157Z,20.08
2022-08-03T06:06:00.754Z,20.14
2022-08-03T06:08:27.034Z,20.20
2022-08-03T06:10:53.160Z,20.27
2022-08-03T06:13:19.309Z,20.35
2022-08-03T06:15:45.449Z,20.42
2022-08-03T06:18:11.603Z,20.49
2022-08-03T06:20:37.788Z,20.57
2022-08-03T06:23:03.925Z,20.62
2022-08-03T06:25:30.214Z,20.67
2022-08-03T06:27:56.436Z,20.72
2022-08-03T06:30:23.601Z,20.73
2022-08-03T06:32:52.078Z,20.84
2022-08-03T06:35:18.541Z,20.91
2022-08-03T06:37:44.689Z,20.96
2022-08-03T06:40:10.837Z,21.04
2022-08-03T06:42:40.171Z,21.13
2022-08-03T06:45:06.313Z,21.21
2022-08-03T06:47:32.446Z,21.30
2022-08-03T06:50:13.031Z,21.39
2022-08-03T06:52:43.569Z,21.49
2022-08-03T06:55:09.746Z,21.55
2022-08-03T06:57:35.903Z,21.65
2022-08-03T07:00:08.707Z,21.74
2022-08-03T07:02:37.911Z,21.86
2022-08-03T07:05:05.246Z,21.91
2022-08-03T07:07:31.381Z,21.98
2022-08-03T07:09:58.268Z,22.09
2022-08-03T07:12:24.605Z,22.20
2022-08-03T07:14:50.751Z,22.32
2022-08-03T07:17:16.917Z,22.46
2022-08-03T07:19:43.065Z,22.57
2022-08-03T07:22:09.328Z,22.63
2022-08-03T07:24:35.508Z,22.74
2022-08-03T07:27:01.649Z,22.77
2022-08-03T07:29:27.776Z,22.88
2022-08-03T07:31:54.276Z,22.99
2022-08-03T07:34:20.400Z,23.13
2022-08-03T07:36:46.575Z,23.27
2022-08-03T07:39:16.492Z,23.36
2022-08-03T07:41:44.249Z,23.50
2022-08-03T07:44:10.369Z,23.61
2022-08-03T07:46:37.009Z,23.68
2022-08-03T07:49:03.225Z,23.82
2022-08-03T07:51:29.488Z,23.94
2022-08-03T07:53:55.655Z,24.06
2022-08-03T07:56:21.799Z,24.09
2022-08-03T07:58:47.975Z,24.15
2022-08-03T08:01:15.131Z,24.23
2022-08-03T08:03:53.223Z,24.31
2022-08-03T08:06:19.833Z,24.33
2022-08-03T08:08:46.216Z,24.45
2022-08-03T08:11:12.358Z,24.56
2022-08-03T08:13:38.515Z,24.66
2022-08-03T08:16:04.664Z,24.62
2022-08-03T08:18:30.816Z,24.67
2022-08-03T08:20:56.978Z,24.78
2022-08-03T08:23:42.032Z,24.93
2022-08-03T08:26:09.540Z,25.06
2022-08-03T08:28:35.660Z,25.14
2022-08-03T08:31:01.853Z,25.26
2022-08-03T08:33:42.190Z,25.32
2022-08-03T08:36:15.475Z,25.41
2022-08-03T08:38:41.959Z,25.46
2022-08-03T08:41:08.084Z,25.62
2022-08-03T08:43:34.240Z,25.68
2022-08-03T08:46:00.397Z,25.79
2022-08-03T08:48:26.529Z,25.87
2022-08-03T08:50:52.669Z,25.98
2022-08-03T08:53:22.783Z,26.03
2022-08-03T08:55:59.351Z,26.09
2022-08-03T08:58:26.544Z,26.16
2022-08-03T09:00:52.749Z,26.26
2022-08-03T09:03:29.150Z,26.29
2022-08-03T09:05:56.975Z,26.37
2022-08-03T09:08:23.209Z,26.39
2022-08-03T09:10:49.367Z,26.47
2022-08-03T09:13:15.536Z,26.53
2022-08-03T09:15:41.677Z,26.55
2022-08-03T09:18:25.304Z,26.61
2022-08-03T09:20:56.693Z,26.68
2022-08-03T09:24:00.600Z,26.69
2022-08-03T09:26:09.162Z,26.70
2022-08-03T09:28:59.761Z,26.71
2022-08-03T09:31:21.476Z,26.75
2022-08-03T09:33:47.614Z,26.79
2022-08-03T09:36:13.783Z,26.86
2022-08-03T09:38:39.988Z,26.87
2022-08-03T09:41:06.140Z,26.93
2022-08-03T09:43:32.293Z,27.08
2022-08-03T09:45:58.460Z,27.05
2022-08-03T09:48:24.613Z,27.16
2022-08-03T09:50:56.994Z,27.24
2022-08-03T09:53:38.774Z,27.31
2022-08-03T09:56:34.645Z,27.32
2022-08-03T09:59:02.774Z,27.47
2022-08-03T10:01:28.971Z,27.49
2022-08-03T10:04:04.040Z,27.53
2022-08-03T10:06:31.189Z,27.55
2022-08-03T10:08:57.339Z,27.59
2022-08-03T10:11:23.456Z,27.60
2022-08-03T10:13:49.624Z,27.67
2022-08-03T10:16:21.601Z,27.70
2022-08-03T10:18:51.260Z,27.74
2022-08-03T10:21:17.417Z,27.69
2022-08-03T10:23:43.553Z,27.74
2022-08-03T10:26:09.720Z,27.79
2022-08-03T10:28:35.856Z,27.87
2022-08-03T10:31:02.024Z,27.92
2022-08-03T10:33:50.201Z,27.95
2022-08-03T10:36:14.346Z,28.00
2022-08-03T10:38:40.835Z,28.03
2022-08-03T10:41:06.962Z,28.02
2022-08-03T10:43:33.104Z,28.14
2022-08-03T10:45:59.387Z,28.18
2022-08-03T10:48:25.516Z,28.26
2022-08-03T10:50:51.644Z,28.23
2022-08-03T10:53:18.628Z,28.22
2022-08-03T10:55:46.183Z,28.28
2022-08-03T10:58:12.355Z,28.38
2022-08-03T11:00:38.558Z,28.41
2022-08-03T11:03:04.729Z,28.42
2022-08-03T11:05:30.867Z,28.48
2022-08-03T11:07:57.023Z,28.41
2022-08-03T11:10:23.144Z,28.36
2022-08-03T11:12:49.272Z,28.45
2022-08-03T11:15:15.535Z,28.52
2022-08-03T11:17:46.398Z,28.58
2022-08-03T11:20:22.291Z,28.51
2022-08-03T11:22:48.459Z,28.62
2022-08-03T11:25:54.248Z,28.73
2022-08-03T11:28:00.751Z,28.76
2022-08-03T11:30:27.601Z,28.86
2022-08-03T11:32:54.005Z,28.93
2022-08-03T11:35:20.219Z,29.09
2022-08-03T11:38:03.072Z,29.04
2022-08-03T11:40:30.948Z,28.92
2022-08-03T11:42:57.128Z,28.97
2022-08-03T11:45:23.265Z,29.12
2022-08-03T11:47:51.175Z,29.11
2022-08-03T11:50:17.577Z,29.05
2022-08-03T11:52:43.716Z,29.04
2022-08-03T11:55:09.869Z,28.98
2022-08-03T11:59:01.773Z,28.98
2022-08-03T12:00:22.205Z,29.06
2022-08-03T12:02:48.408Z,29.11
2022-08-03T12:05:14.596Z,29.19
2022-08-03T12:08:04.316Z,29.28
2022-08-03T12:10:26.934Z,29.24
2022-08-03T12:12:55.058Z,29.20
2022-08-03T12:15:21.192Z,29.26
2022-08-03T12:17:47.389Z,29.35
2022-08-03T12:20:13.524Z,29.33
2022-08-03T12:22:39.661Z,29.37
2022-08-03T12:25:05.840Z,29.29
2022-08-03T12:27:31.996Z,29.23
2022-08-03T12:29:59.026Z,29.34
2022-08-03T12:32:25.475Z,29.31
2022-08-03T12:34:51.645Z,29.45
2022-08-03T12:37:22.326Z,29.47
2022-08-03T12:40:03.577Z,29.51
2022-08-03T12:42:32.918Z,29.53
2022-08-03T12:44:59.104Z,29.47
2022-08-03T12:47:25.254Z,29.58
2022-08-03T12:49:51.430Z,29.69
2022-08-03T12:52:17.589Z,29.69
2022-08-03T12:54:43.733Z,29.82
2022-08-03T12:57:09.914Z,29.64
2022-08-03T12:59:40.419Z,29.57
2022-08-03T13:02:09.297Z,29.75
2022-08-03T13:04:36.120Z,29.71
2022-08-03T13:07:02.367Z,29.68
2022-08-03T13:09:29.383Z,29.73
2022-08-03T13:12:02.135Z,29.81
2022-08-03T13:14:28.905Z,29.81
2022-08-03T13:16:55.099Z,29.90
2022-08-03T13:19:21.253Z,29.83
2022-08-03T13:22:01.851Z,30.04
2022-08-03T13:24:31.461Z,29.96
2022-08-03T13:26:58.009Z,29.88
2022-08-03T13:29:24.151Z,29.89
2022-08-03T13:31:51.089Z,29.83
2022-08-03T13:34:20.968Z,29.82
2022-08-03T13:39:35.693Z,29.81
2022-08-03T13:42:21.810Z,29.69
2022-08-03T13:44:48.458Z,29.80
2022-08-03T13:47:15.613Z,29.77
2022-08-03T13:49:41.807Z,29.84
2022-08-03T13:52:07.987Z,29.87
2022-08-03T13:54:34.152Z,29.77
2022-08-03T13:58:01.345Z,29.84
2022-08-03T13:59:46.483Z,30.08
2022-08-03T14:02:12.677Z,30.10
2022-08-03T14:04:38.846Z,30.11
2022-08-03T14:07:05.025Z,29.99
2022-08-03T14:09:31.169Z,30.08
2022-08-03T14:12:07.152Z,30.23
2022-08-03T14:14:34.682Z,30.10
2022-08-03T14:17:00.823Z,30.07
2022-08-03T14:19:28.972Z,30.13
2022-08-03T14:22:06.499Z,30.49
2022-08-03T14:24:33.100Z,30.92
2022-08-03T14:27:07.144Z,30.92
2022-08-03T14:29:35.311Z,31.31
2022-08-03T14:32:11.362Z,31.68
2022-08-03T14:34:38.954Z,32.03
2022-08-03T14:37:05.126Z,32.15
2022-08-03T14:39:58.339Z,32.01
2022-08-03T14:42:17.424Z,32.02
2022-08-03T14:44:43.696Z,32.24
2022-08-03T14:47:09.831Z,32.19
2022-08-03T14:50:37.281Z,32.28
2022-08-03T14:52:22.114Z,32.53
2022-08-03T14:54:48.290Z,32.98
2022-08-03T14:57:14.437Z,32.97
2022-08-03T14:59:55.903Z,33.11
2022-08-03T15:02:24.081Z,32.93
2022-08-03T15:04:50.517Z,32.96
2022-08-03T15:07:16.676Z,33.22
2022-08-03T15:09:43.156Z,32.92
2022-08-03T15:12:09.331Z,33.27
2022-08-03T15:14:35.478Z,33.80
2022-08-03T15:17:04.087Z,33.71
2022-08-03T15:20:03.359Z,33.72
2022-08-03T15:22:16.349Z,33.92
2022-08-03T15:24:46.702Z,33.78
2022-08-03T15:27:12.827Z,33.73
2022-08-03T15:30:07.758Z,33.97
2022-08-03T15:32:25.090Z,34.39
2022-08-03T15:34:52.498Z,33.84
2022-08-03T15:37:18.642Z,33.70
2022-08-03T15:39:59.689Z,33.64
2022-08-03T15:42:26.960Z,33.46
2022-08-03T15:44:53.638Z,33.49
2022-08-03T15:47:20.828Z,33.15
2022-08-03T15:49:47.382Z,33.09
2022-08-03T15:52:13.497Z,33.13
2022-08-03T15:54:39.635Z,33.19
2022-08-03T15:57:05.801Z,33.46
2022-08-03T15:59:31.933Z,33.91
2022-08-03T16:01:58.130Z,34.86
2022-08-03T16:04:24.312Z,35.41
2022-08-03T16:06:50.438Z,35.86
2022-08-03T16:09:23.803Z,35.38
2022-08-03T16:12:02.790Z,35.47
2022-08-03T16:14:32.463Z,35.86
2022-08-03T16:17:01.877Z,35.75
2022-08-03T16:19:28.041Z,36.00
2022-08-03T16:21:54.171Z,36.22
2022-08-03T16:24:27.659Z,36.79
2022-08-03T16:26:54.329Z,37.34
2022-08-03T16:29:23.391Z,37.42
2022-08-03T16:31:51.258Z,37.49
2022-08-03T16:34:17.746Z,37.87
2022-08-03T16:36:45.166Z,38.26
2022-08-03T16:39:11.398Z,38.62
2022-08-03T16:41:54.142Z,38.64
2022-08-03T16:44:23.738Z,37.79
2022-08-03T16:46:53.052Z,38.12
2022-08-03T16:49:53.091Z,38.47
2022-08-03T16:52:07.112Z,38.45
2022-08-03T16:54:33.420Z,38.28
2022-08-03T16:57:00.962Z,38.26
2022-08-03T16:59:35.989Z,38.71
2022-08-03T17:02:05.489Z,39.12
2022-08-03T17:04:35.808Z,39.08
2022-08-03T17:07:06.397Z,39.15
2022-08-03T17:09:38.544Z,39.10
2022-08-03T17:12:05.694Z,39.42
2022-08-03T17:14:33.427Z,39.08
2022-08-03T17:16:59.559Z,39.56
2022-08-03T17:19:27.717Z,39.64
2022-08-03T17:21:55.374Z,39.31
2022-08-03T17:24:21.504Z,39.20
2022-08-03T17:26:51.474Z,39.12
2022-08-03T17:29:17.610Z,39.97
2022-08-03T17:31:49.695Z,38.95
2022-08-03T17:34:16.192Z,37.94
2022-08-03T17:37:03.084Z,37.16
2022-08-03T17:39:55.803Z,36.96
2022-08-03T17:42:30.614Z,36.72
2022-08-03T17:45:02.258Z,37.40
2022-08-03T17:47:42.304Z,38.05
2022-08-03T17:50:24.518Z,38.60
2022-08-03T17:52:52.038Z,37.00
2022-08-03T17:55:56.777Z,36.23
2022-08-03T17:58:07.277Z,36.02
2022-08-03T18:00:33.444Z,36.10
2022-08-03T18:03:00.745Z,36.41
2022-08-03T18:06:10.515Z,36.17
2022-08-03T18:08:15.540Z,36.05
2022-08-03T18:10:49.591Z,36.37
2022-08-03T18:13:30.180Z,36.48
2022-08-03T18:15:56.483Z,35.97
2022-08-03T18:18:32.494Z,35.72
2022-08-03T18:20:58.941Z,35.84
2022-08-03T18:23:36.536Z,35.91
2022-08-03T18:26:04.956Z,36.31
2022-08-03T18:28:31.769Z,35.77
2022-08-03T18:30:57.965Z,35.82
2022-08-03T18:34:19.597Z,35.55
2022-08-03T18:36:10.209Z,35.19
2022-08-03T18:38:36.377Z,34.80
2022-08-03T18:41:02.720Z,34.35
2022-08-03T18:43:46.776Z,34.36
2022-08-03T18:46:13.870Z,34.32
2022-08-03T18:48:40.400Z,34.12
2022-08-03T18:51:12.754Z,33.99
2022-08-03T18:54:04.120Z,33.89
2022-08-03T18:56:32.526Z,33.67
2022-08-03T18:59:02.296Z,33.52
2022-08-03T19:01:59.035Z,33.20
2022-08-03T19:04:14.994Z,32.83
2022-08-03T19:06:43.082Z,32.58
2022-08-03T19:09:10.291Z,32.38
2022-08-03T19:12:28.315Z,32.15
2022-08-03T19:14:22.577Z,31.82
2022-08-03T19:16:55.009Z,31.76
2022-08-03T19:19:21.139Z,31.44
2022-08-03T19:21:48.812Z,31.34
2022-08-03T19:24:15.424Z,31.08
2022-08-03T19:26:41.881Z,30.99
2022-08-03T19:29:10.776Z,30.79
2022-08-03T19:31:41.125Z,30.56
2022-08-03T19:34:25.397Z,30.52
2022-08-03T19:36:51.548Z,30.38
2022-08-03T19:39:18.643Z,30.23
2022-08-03T19:41:44.900Z,30.07
2022-08-03T19:44:19.812Z,29.88
2022-08-03T19:46:46.519Z,29.77
2022-08-03T19:49:14.719Z,29.77
2022-08-03T19:52:00.883Z,29.52
2022-08-03T19:54:29.729Z,29.36
2022-08-03T19:56:58.371Z,29.22
2022-08-03T19:59:24.522Z,29.10
2022-08-03T20:01:52.645Z,29.05
2022-08-03T20:04:18.881Z,28.89
2022-08-03T20:06:46.739Z,28.72
2022-08-03T20:09:15.823Z,28.62
2022-08-03T20:11:44.954Z,28.48
2022-08-03T20:14:11.357Z,28.27
2022-08-03T20:16:39.415Z,28.24
2022-08-03T20:19:14.245Z,28.17
2022-08-03T20:21:40.592Z,27.92
2022-08-03T20:24:24.182Z,27.80
2022-08-03T20:26:51.724Z,27.66
2022-08-03T20:29:19.458Z,27.52
2022-08-03T20:31:45.594Z,27.35
2022-08-03T20:34:11.723Z,27.17
2022-08-03T20:36:43.779Z,27.12
2022-08-03T20:39:10.032Z,27.14
2022-08-03T20:41:36.504Z,27.00
2022-08-03T20:44:02.647Z,26.99
2022-08-03T20:46:40.633Z,26.90
2022-08-03T20:49:12.812Z,26.98
2022-08-03T20:51:50.627Z,26.78
2022-08-03T20:54:20.888Z,26.69
2022-08-03T20:56:55.161Z,26.59
2022-08-03T20:59:21.808Z,26.41
2022-08-03T21:01:48.013Z,26.44
2022-08-03T21:04:14.220Z,26.52
2022-08-03T21:06:53.303Z,26.39
2022-08-03T21:09:19.808Z,26.39
2022-08-03T21:11:46.425Z,26.25
2022-08-03T21:14:12.717Z,26.22
2022-08-03T21:16:38.919Z,26.08
2022-08-03T21:19:05.112Z,25.80
2022-08-03T21:21:31.870Z,25.87
2022-08-03T21:23:58.137Z,25.71
2022-08-03T21:26:24.402Z,25.66
2022-08-03T21:28:50.663Z,25.51
2022-08-03T21:31:23.662Z,25.59
2022-08-03T21:33:52.098Z,25.68
2022-08-03T21:36:18.326Z,25.59
2022-08-03T21:38:44.523Z,25.39
2022-08-03T21:41:21.986Z,25.48
2022-08-03T21:43:48.423Z,25.48
2022-08-03T21:46:14.714Z,25.29
2022-08-03T21:48:40.957Z,25.19
2022-08-03T21:51:07.158Z,25.13
2022-08-03T21:54:00.290Z,25.12
2022-08-03T21:56:19.582Z,25.02
2022-08-03T21:58:45.874Z,24.93
2022-08-03T22:01:17.368Z,25.01
2022-08-03T22:03:51.093Z,24.92
2022-08-03T22:06:20.436Z,24.85
2022-08-03T22:08:48.689Z,24.80
2022-08-03T22:11:14.988Z,24.87
2022-08-03T22:13:44.032Z,24.69
2022-08-03T22:16:10.736Z,24.60
2022-08-03T22:18:36.853Z,24.63
2022-08-03T22:21:02.977Z,24.62
2022-08-03T22:23:29.647Z,24.65
2022-08-03T22:25:55.798Z,24.52
2022-08-03T22:28:21.940Z,24.58
2022-08-03T22:30:48.092Z,24.57
2022-08-03T22:33:14.224Z,24.59
2022-08-03T22:35:44.276Z,24.31
2022-08-03T22:38:13.837Z,24.37
2022-08-03T22:40:39.960Z,24.45
2022-08-03T22:43:06.130Z,24.43
2022-08-03T22:46:07.428Z,24.20
2022-08-03T22:48:18.389Z,24.17
2022-08-03T22:50:44.541Z,24.23
2022-08-03T22:53:10.681Z,24.16
2022-08-03T22:55:36.815Z,24.15
2022-08-03T22:58:03.016Z,24.07
2022-08-03T23:00:29.145Z,24.01
2022-08-03T23:02:55.335Z,24.00
2022-08-03T23:06:01.224Z,24.05
2022-08-03T23:08:07.946Z,23.97
2022-08-03T23:10:34.103Z,23.87
2022-08-03T23:13:00.224Z,23.89
2022-08-03T23:15:26.346Z,23.81
2022-08-03T23:17:58.225Z,23.83
2022-08-03T23:20:26.428Z,23.76
2022-08-03T23:22:53.021Z,23.76
2022-08-03T23:25:19.492Z,23.75
2022-08-03T23:27:45.626Z,23.74
2022-08-03T23:30:11.763Z,23.67
2022-08-03T23:32:37.917Z,23.66
2022-08-03T23:35:04.046Z,23.57
2022-08-03T23:37:30.188Z,23.57
2022-08-03T23:39:56.341Z,23.64
2022-08-03T23:42:22.471Z,23.59
2022-08-03T23:44:48.599Z,23.54
2022-08-03T23:47:14.770Z,23.46
2022-08-03T23:49:40.917Z,23.44
2022-08-03T23:52:07.047Z,23.38
2022-08-03T23:54:33.190Z,23.23
2022-08-03T23:56:59.338Z,23.23
2022-08-03T23:59:25.478Z,23.33
